Tijucas Do Sul, Brazil
Current Conditions -  °F | °C
As of 1:00 PM on Friday 19 Dec 2014 (Local Time) from SBCT Reporting Station
Broken Clouds Broken Clouds  
Wind Chill: 79°   Ceiling: 3000
Heat Index: 80°   Visibility: 6mi
Dew Point: 61°   Wind: 6mph
Humidity: 54%   Direction: 360°N
Pressure: 29.94"   Gusts: NA
Location:  25.93°S, 49.18°W
Report Text: SBCT 191500Z 36005KT 9999 BKN030 26/16 Q1014
Loading
Personal Weather Stations






























Interactive Weather Map New forecast layout! Learn more

10-Day Weather Forecast

Advertisements
Track Severe Weather on mobile